• Join FlightAware (Why Join?)
  • Login
  • US Flag 
04:51PM EST


 

Airport Tracker/Info


-or-


 

Live Flight TrackerFlight Track Log ✈ FLG3729 ✈ 22-May-2013 ✈ KALB - KDTW

Flight Track Log - Related Links

Times and Time Zones

All times are in EDT time to prevent confusion due to time zone crossing. See the FLG3729 flight status page for this flight to view local times or setup timezone preferences in your user account.

Time Position Orientation Groundspeed Altitude Reporting Facility
EDT Latitude Longitude Course Direction KTS MPH feet Rate Location/Type
05:54AM 42.7297 -73.8081 283° West 148 170 1,400  Level Boston Center
05:55AM 42.6817 -73.8156 187° South 196 226 2,800 1,740 Climbing Boston Center
05:56AM 42.7144 -73.8728 308° West 225 259 5,000 1,740 Climbing Boston Center
05:56AM 42.7331 -73.8900 326° Northwest 252 290 5,300 2,100 Climbing Boston Center
05:57AM 42.8250 -74.2749 281° West  Level FlightAware Approximate
05:57AM 42.7908 -73.9367 329° Northwest 267 307 8,000  Level Boston Center
05:58AM 42.8439 -74.3964 283° West  Level FlightAware Approximate
05:58AM 42.8567 -73.9864 331° Northwest 267 307 10,400  Level Boston Center
05:59AM 42.8641 -74.5177 283° West  Level FlightAware Approximate
05:59AM 42.8931 -74.0725 300° West 267 307 11,700  Level Boston Center
06:00AM 42.9142 -74.1978 283° West 295 339 13,600 1,740 Climbing Boston Center
06:01AM 42.9269 -74.3058 279° West 318 366 15,200 1,500 Climbing Boston Center
06:02AM 42.9433 -74.4425 279° West 329 379 16,600 1,260 Climbing Boston Center
06:03AM 42.9603 -74.5539 282° West 335 386 17,800 1,200 Climbing Boston Center
06:04AM 42.9786 -74.6850 281° West 335 386 19,000 1,140 Climbing Boston Center
06:05AM 42.9944 -74.8275 279° West 345 397 20,100 900 Climbing Boston Center
06:06AM 43.0103 -74.9644 279° West 357 411 20,800 720 Climbing Boston Center
06:07AM 43.0300 -75.0989 281° West 362 417 21,600 900 Climbing Boston Center
06:08AM 43.0456 -75.2386 279° West 362 417 22,600 780 Climbing Boston Center
06:09AM 43.0628 -75.3758 280° West 368 423 23,200 540 Climbing Boston Center
06:10AM 43.0800 -75.5189 279° West 378 435 23,700 480 Climbing Boston Center
06:11AM 43.0989 -75.6592 280° West 378 435 24,200 480 Climbing Boston Center
06:12AM 43.1156 -75.8053 279° West 383 441 24,700 540 Climbing Boston Center
06:13AM 43.1375 -75.9800 280° West 388 447 25,500 720 Climbing Boston Center
06:16AM 43.1528 -76.2656 274° West 378 435 27,200 780 Climbing Cleveland Center
06:16AM 43.1433 -76.4058 265° West 378 435 28,000 600 Climbing Cleveland Center
06:18AM 43.1339 -76.5458 265° West 378 435 28,500 480 Climbing Cleveland Center
06:18AM 43.1219 -76.6889 264° West 378 435 29,000 540 Climbing Cleveland Center
06:20AM 43.1042 -76.8408 261° West 373 429 29,600 480 Climbing Cleveland Center
06:20AM 43.0919 -76.9839 263° West 373 429 30,000 180 Climbing Cleveland Center
06:22AM 43.0797 -77.1267 263° West 373 429 30,000  Level Cleveland Center
06:23AM 43.0653 -77.2753 262° West 384 442 30,000  Level Cleveland Center
06:24AM 43.0528 -77.4208 263° West 389 448 30,000  Level Cleveland Center
06:25AM 43.0378 -77.5694 262° West 389 448 30,000  Level Cleveland Center
06:26AM 43.0250 -77.7178 263° West 389 448 30,000  Level Cleveland Center
06:27AM 43.0097 -77.8689 262° West 394 453 30,000  Level Cleveland Center
06:27AM 42.9967 -78.0169 263° West 394 453 30,000  Level Cleveland Center
06:28AM 42.9789 -78.1653 261° West 394 453 30,000  Level Cleveland Center
06:29AM 42.9653 -78.3136 263° West 394 453 30,000  Level Cleveland Center
06:31AM 42.9472 -78.4672 261° West 399 459 30,000  Level Cleveland Center
06:31AM 42.9353 -78.6122 264° West 399 459 30,000  Level Cleveland Center
06:33AM 42.9147 -78.7633 260° West 399 459 30,000  Level Cleveland Center
06:33AM 42.8942 -78.9111 259° West 404 465 30,000  Level Cleveland Center
06:35AM 42.8731 -79.0478 258° West 409 471 30,000  Level Cleveland Center
06:36AM 42.8481 -79.2097 258° West 414 476 30,000  Level Cleveland Center
06:37AM 42.8308 -79.3461 260° West 414 476 30,000  Level Cleveland Center
06:37AM 42.8072 -79.4964 258° West 414 476 30,000  Level Cleveland Center
06:39AM 42.7858 -79.6439 259° West 414 476 30,000  Level Cleveland Center
06:40AM 42.7639 -79.7942 259° West 414 476 30,000  Level Cleveland Center
06:41AM 42.7503 -79.9442 263° West 414 476 30,000  Level Cleveland Center
06:42AM 42.7386 -80.1111 265° West 407 468 30,000  Level Cleveland Center
06:43AM 42.7350 -80.2694 268° West 407 468 30,000  Level Cleveland Center
06:44AM 42.7289 -80.4250 267° West 407 468 30,000 -540 Level Cleveland Center
06:45AM 42.7228 -80.5775 267° West 407 468 29,000 -1,020 Descending Cleveland Center
06:46AM 42.7144 -80.7272 266° West 407 468 28,000 -960 Descending Cleveland Center
06:47AM 42.7078 -80.8600 266° West 400 460 27,100 -960 Descending Cleveland Center
06:47AM 42.6928 -81.0125 262° West 405 466 26,100 -1,020 Descending Cleveland Center
06:49AM 42.6775 -81.1536 262° West 395 455 25,100 -1,020 Descending Cleveland Center
06:50AM 42.6622 -81.2975 262° West 388 447 24,100 -1,020 Descending Cleveland Center
06:51AM 42.6447 -81.4356 260° West 383 441 23,100 -1,020 Descending Cleveland Center
06:52AM 42.6289 -81.5681 261° West 372 428 22,100 -1,020 Descending Cleveland Center
06:53AM 42.6131 -81.7003 261° West 365 420 21,100 -600 Descending Cleveland Center
06:54AM 42.5931 -81.8381 259° West 354 407 21,000 -360 Descending Cleveland Center
06:55AM 42.5789 -81.9706 262° West 354 407 20,400 -1,320 Descending Cleveland Center
06:56AM 42.5628 -82.1025 261° West 354 407 18,400 -2,100 Descending Cleveland Center
06:56AM 42.5533 -82.1814 261° West 343 395 17,000 -2,340 Descending Cleveland Center
06:57AM 42.5486 -82.2206 261° West 348 400 16,100 -1,980 Descending Cleveland Center
06:57AM 42.5389 -82.3106 262° West 313 360 14,800 -1,920 Descending Cleveland Center
06:58AM 42.5344 -82.3386 258° West 336 387 14,200 -1,800 Descending Cleveland Center
06:58AM 42.5222 -82.4425 261° West 308 354 12,800 -1,140 Descending Cleveland Center
06:59AM 42.5036 -82.5547 257° West 306 352 12,100 -960 Descending Cleveland Center
07:00AM 42.4686 -82.6578 245° Southwest 299 344 10,900 -1,560 Descending Cleveland Center
07:02AM 42.4314 -82.7578 243° Southwest 296 341 8,900 -1,860 Descending Cleveland Center
07:03AM 42.4025 -82.8439 246° West 274 315 7,000 -1,380 Descending Cleveland Center
07:04AM 42.3964 -82.9422 265° West 263 303 6,200 -600 Descending Cleveland Center
07:05AM 42.3881 -83.0375 263° West 263 303 5,900 -120 Descending Cleveland Center
07:05AM 42.3878 -83.0597 269° West 233 268 6,100 -720 Climbing Cleveland Center
07:06AM 42.3842 -83.1189 265° West 242 278 5,200 -1,020 Descending Cleveland Center
07:06AM 42.3797 -83.1411 255° West 201 231 5,100 -780 Descending Cleveland Center
07:07AM 42.3533 -83.1961 237° Southwest 211 243 4,400 -900 Descending Cleveland Center